createdAt,value
2023-07-27T00:00:41.853Z,2.50
2023-07-27T00:03:08.988Z,2.90
2023-07-27T00:05:36.055Z,2.70
2023-07-27T00:08:03.258Z,1.70
2023-07-27T00:10:30.573Z,2.50
2023-07-27T00:12:57.601Z,1.90
2023-07-27T00:15:24.828Z,2.70
2023-07-27T00:17:51.896Z,2.50
2023-07-27T00:20:19.119Z,3.20
2023-07-27T00:22:46.247Z,2.50
2023-07-27T00:25:13.358Z,3.30
2023-07-27T00:27:40.445Z,2.30
2023-07-27T00:30:08.924Z,2.30
2023-07-27T00:32:36.187Z,2.50
2023-07-27T00:35:03.576Z,3.50
2023-07-27T00:37:30.792Z,3.00
2023-07-27T00:39:57.820Z,2.80
2023-07-27T00:42:24.791Z,2.90
2023-07-27T00:44:51.924Z,5.10
2023-07-27T00:47:18.948Z,3.00
2023-07-27T00:49:45.980Z,1.90
2023-07-27T00:52:13.187Z,1.30
2023-07-27T00:54:40.253Z,1.20
2023-07-27T00:57:07.839Z,1.00
2023-07-27T00:59:34.997Z,1.00
2023-07-27T01:02:02.091Z,2.50
2023-07-27T01:04:30.348Z,2.80
2023-07-27T01:06:57.333Z,2.50
2023-07-27T01:09:24.517Z,1.60
2023-07-27T01:12:01.500Z,2.10
2023-07-27T01:14:44.006Z,1.10
2023-07-27T01:17:15.009Z,6.70
2023-07-27T01:20:02.356Z,0.80
2023-07-27T01:22:29.627Z,1.50
2023-07-27T01:25:08.541Z,2.00
2023-07-27T01:27:58.088Z,2.80
2023-07-27T01:30:28.274Z,1.90
2023-07-27T01:33:05.313Z,1.30
2023-07-27T01:35:37.857Z,1.00
2023-07-27T01:38:04.818Z,1.60
2023-07-27T01:40:31.990Z,1.10
2023-07-27T01:42:59.113Z,1.80
2023-07-27T01:45:26.153Z,2.30
2023-07-27T01:47:53.611Z,2.00
2023-07-27T01:50:20.655Z,2.40
2023-07-27T01:52:47.852Z,3.40
2023-07-27T01:55:17.942Z,1.10
2023-07-27T01:57:45.108Z,1.60
2023-07-27T02:00:13.188Z,1.20
2023-07-27T02:02:45.522Z,1.70
2023-07-27T02:05:12.589Z,1.40
2023-07-27T02:07:39.652Z,0.90
2023-07-27T02:10:07.072Z,1.80
2023-07-27T02:12:38.350Z,1.40
2023-07-27T02:15:17.047Z,1.60
2023-07-27T02:17:53.498Z,1.10
2023-07-27T02:20:20.501Z,0.70
2023-07-27T02:22:47.761Z,0.40
2023-07-27T02:25:14.773Z,0.70
2023-07-27T02:27:41.806Z,0.70
2023-07-27T02:30:09.139Z,0.60
2023-07-27T02:32:36.314Z,0.50
2023-07-27T02:35:03.389Z,2.00
2023-07-27T02:37:31.121Z,0.20
2023-07-27T02:39:58.286Z,2.50
2023-07-27T02:42:25.460Z,1.50
2023-07-27T02:44:52.567Z,0.80
2023-07-27T02:47:19.726Z,0.60
2023-07-27T02:49:47.309Z,0.30
2023-07-27T02:52:14.330Z,0.70
2023-07-27T02:54:41.714Z,1.30
2023-07-27T02:57:09.200Z,0.40
2023-07-27T02:59:44.183Z,1.70
2023-07-27T03:02:11.642Z,0.70
2023-07-27T03:04:40.051Z,0.50
2023-07-27T03:07:08.853Z,0.40
2023-07-27T03:09:36.359Z,0.10
2023-07-27T03:12:03.887Z,0.70
2023-07-27T03:14:31.254Z,0.30
2023-07-27T03:16:58.458Z,0.50
2023-07-27T03:19:25.643Z,0.40
2023-07-27T03:21:53.678Z,0.20
2023-07-27T03:24:21.349Z,1.40
2023-07-27T03:26:48.378Z,0.10
2023-07-27T03:29:15.548Z,0.90
2023-07-27T03:31:42.530Z,0.70
2023-07-27T03:34:09.594Z,0.30
2023-07-27T03:36:36.996Z,1.30
2023-07-27T03:39:04.329Z,0.20
2023-07-27T03:41:31.440Z,1.00
2023-07-27T03:43:58.477Z,0.60
2023-07-27T03:46:25.649Z,0.40
2023-07-27T03:48:52.893Z,1.20
2023-07-27T03:51:19.951Z,0.30
2023-07-27T03:53:47.009Z,1.80
2023-07-27T03:56:14.035Z,0.60
2023-07-27T03:58:41.056Z,0.70
2023-07-27T04:01:08.528Z,1.10
2023-07-27T04:03:36.161Z,0.30
2023-07-27T04:06:03.554Z,1.50
2023-07-27T04:08:30.774Z,1.50
2023-07-27T04:10:57.830Z,1.10
2023-07-27T04:13:24.913Z,0.80
2023-07-27T04:15:51.987Z,0.50
2023-07-27T04:18:19.096Z,0.40
2023-07-27T04:20:46.319Z,0.30
2023-07-27T04:23:14.266Z,2.80
2023-07-27T04:25:41.468Z,0.30
2023-07-27T04:28:08.475Z,0.30
2023-07-27T04:30:35.508Z,1.30
2023-07-27T04:33:02.713Z,0.60
2023-07-27T04:35:30.212Z,0.40
2023-07-27T04:37:57.527Z,1.40
2023-07-27T04:40:24.720Z,1.10
2023-07-27T04:42:51.737Z,0.40
2023-07-27T04:45:18.912Z,1.20
2023-07-27T04:47:46.047Z,2.30
2023-07-27T04:50:13.087Z,1.10
2023-07-27T04:52:40.329Z,2.80
2023-07-27T04:55:07.769Z,1.30
2023-07-27T04:57:35.121Z,1.60
2023-07-27T05:00:02.136Z,0.40
2023-07-27T05:02:29.670Z,0.40
2023-07-27T05:04:56.787Z,0.20
2023-07-27T05:07:23.798Z,1.10
2023-07-27T05:09:50.971Z,1.30
2023-07-27T05:12:17.953Z,0.70
2023-07-27T05:14:44.997Z,0.40
2023-07-27T05:17:12.028Z,0.20
2023-07-27T05:19:39.050Z,2.40
2023-07-27T05:22:06.106Z,0.50
2023-07-27T05:24:33.481Z,0.70
2023-07-27T05:27:00.609Z,0.40
2023-07-27T05:29:28.105Z,0.60
2023-07-27T05:31:55.355Z,1.10
2023-07-27T05:34:22.385Z,0.20
2023-07-27T05:36:49.971Z,0.30
2023-07-27T05:39:17.240Z,0.40
2023-07-27T05:41:44.346Z,0.50
2023-07-27T05:44:11.382Z,0.30
2023-07-27T05:46:38.414Z,0.30
2023-07-27T05:49:09.112Z,0.80
2023-07-27T05:51:37.956Z,0.30
2023-07-27T05:54:05.028Z,0.20
2023-07-27T05:56:32.489Z,1.00
2023-07-27T05:59:00.036Z,0.90
2023-07-27T06:04:06.725Z,0.50
2023-07-27T06:06:35.239Z,0.20
2023-07-27T06:09:04.017Z,0.20
2023-07-27T06:11:31.130Z,0.40
2023-07-27T06:13:58.464Z,0.60
2023-07-27T06:16:25.853Z,0.50
2023-07-27T06:18:53.099Z,1.60
2023-07-27T06:21:20.305Z,0.30
2023-07-27T06:23:48.722Z,2.70
2023-07-27T06:26:15.934Z,1.10
2023-07-27T06:28:42.937Z,0.20
2023-07-27T06:31:10.106Z,0.50
2023-07-27T06:33:37.106Z,0.30
2023-07-27T06:36:04.472Z,0.20
2023-07-27T06:38:31.550Z,0.10
2023-07-27T06:40:58.568Z,0.20
2023-07-27T06:43:25.710Z,0.50
2023-07-27T06:45:52.689Z,1.10
2023-07-27T06:48:19.752Z,0.60
2023-07-27T06:50:47.296Z,0.30
2023-07-27T06:53:14.271Z,0.20
2023-07-27T06:55:41.353Z,0.30
2023-07-27T06:58:08.920Z,0.50
2023-07-27T07:00:35.951Z,0.30
2023-07-27T07:03:03.337Z,2.20
2023-07-27T07:05:30.780Z,1.00
2023-07-27T07:07:57.748Z,0.50
2023-07-27T07:10:25.395Z,0.70
2023-07-27T07:12:52.411Z,0.20
2023-07-27T07:15:19.551Z,0.40
2023-07-27T07:17:46.702Z,0.20
2023-07-27T07:20:15.492Z,0.10
2023-07-27T07:22:42.581Z,0.10
2023-07-27T07:25:09.821Z,0.20
2023-07-27T07:27:37.003Z,0.30
2023-07-27T07:30:05.642Z,0.50
2023-07-27T07:32:34.967Z,0.20
2023-07-27T07:35:02.685Z,0.10
2023-07-27T07:37:29.842Z,0.10
2023-07-27T07:39:56.996Z,0.20
2023-07-27T07:42:24.049Z,1.30
2023-07-27T07:44:51.079Z,0.20
2023-07-27T07:47:18.936Z,1.00
2023-07-27T07:49:46.164Z,0.60
2023-07-27T07:52:14.969Z,1.30
2023-07-27T07:54:42.056Z,0.30
2023-07-27T07:57:09.202Z,0.50
2023-07-27T07:59:37.058Z,0.60
2023-07-27T08:02:04.421Z,0.30
2023-07-27T08:04:32.126Z,0.60
2023-07-27T08:06:59.114Z,2.00
2023-07-27T08:09:26.230Z,1.10
2023-07-27T08:11:54.369Z,1.80
2023-07-27T08:14:21.642Z,1.80
2023-07-27T08:16:48.683Z,0.60
2023-07-27T08:19:15.840Z,2.50
2023-07-27T08:21:42.951Z,1.10
2023-07-27T08:24:10.060Z,1.00
2023-07-27T08:26:38.342Z,1.30
2023-07-27T08:29:05.300Z,1.10
2023-07-27T08:31:32.491Z,1.40
2023-07-27T08:33:59.836Z,0.80
2023-07-27T08:36:26.954Z,0.90
2023-07-27T08:38:54.143Z,1.50
2023-07-27T08:41:21.683Z,2.20
2023-07-27T08:43:48.730Z,1.60
2023-07-27T08:46:16.301Z,1.50
2023-07-27T08:48:43.455Z,1.20
2023-07-27T08:51:10.522Z,2.30
2023-07-27T08:53:37.849Z,0.90
2023-07-27T08:56:05.426Z,0.70
2023-07-27T08:58:32.469Z,1.60
2023-07-27T09:00:59.417Z,1.00
2023-07-27T09:03:27.615Z,1.80
2023-07-27T09:06:01.822Z,1.90
2023-07-27T09:08:30.150Z,1.10
2023-07-27T09:11:10.752Z,1.00
2023-07-27T09:13:38.175Z,1.50
2023-07-27T09:16:07.118Z,3.00
2023-07-27T09:18:36.804Z,1.70
2023-07-27T09:21:10.441Z,1.10
2023-07-27T09:23:38.256Z,1.50
2023-07-27T09:26:07.079Z,0.80
2023-07-27T09:28:34.726Z,0.80
2023-07-27T09:31:04.998Z,1.90
2023-07-27T09:33:32.755Z,0.90
2023-07-27T09:36:02.055Z,1.00
2023-07-27T09:38:29.389Z,1.20
2023-07-27T09:40:56.519Z,1.40
2023-07-27T09:43:26.860Z,0.70
2023-07-27T09:46:01.011Z,0.90
2023-07-27T09:48:30.933Z,1.30
2023-07-27T09:50:59.666Z,1.30
2023-07-27T09:53:29.281Z,1.50
2023-07-27T09:55:56.354Z,2.70
2023-07-27T09:58:23.990Z,2.90
2023-07-27T10:00:51.002Z,1.40
2023-07-27T10:03:18.059Z,2.20
2023-07-27T10:05:45.359Z,1.40
2023-07-27T10:08:12.442Z,1.80
2023-07-27T10:10:41.076Z,2.20
2023-07-27T10:13:12.442Z,2.00
2023-07-27T10:15:42.679Z,3.20
2023-07-27T10:18:13.316Z,1.70
2023-07-27T10:20:41.004Z,1.60
2023-07-27T10:23:19.462Z,1.60
2023-07-27T10:26:06.759Z,2.10
2023-07-27T10:28:36.967Z,3.00
2023-07-27T10:31:21.643Z,4.20
2023-07-27T10:34:04.638Z,2.00
2023-07-27T10:37:01.433Z,1.40
2023-07-27T10:39:48.463Z,3.70
2023-07-27T10:42:22.996Z,3.10
2023-07-27T10:44:58.972Z,4.10
2023-07-27T10:47:33.804Z,2.50
2023-07-27T10:50:01.204Z,2.40
2023-07-27T10:52:30.149Z,2.30
2023-07-27T10:54:59.753Z,2.80
2023-07-27T10:57:28.280Z,2.40
2023-07-27T10:59:56.142Z,1.90
2023-07-27T11:02:30.718Z,4.70
2023-07-27T11:04:58.946Z,1.50
2023-07-27T11:07:29.256Z,3.30
2023-07-27T11:09:56.781Z,2.70
2023-07-27T11:12:24.001Z,1.10
2023-07-27T11:14:52.828Z,2.00
2023-07-27T11:17:23.728Z,2.60
2023-07-27T11:22:18.119Z,2.50
2023-07-27T11:24:45.307Z,2.80
2023-07-27T11:27:13.985Z,2.70
2023-07-27T11:29:42.014Z,2.10
2023-07-27T11:32:09.239Z,2.90
2023-07-27T11:34:36.905Z,3.20
2023-07-27T11:37:04.085Z,2.20
2023-07-27T11:39:32.730Z,3.30
2023-07-27T11:42:07.345Z,1.90
2023-07-27T11:44:35.123Z,3.60
2023-07-27T11:47:02.510Z,1.30
2023-07-27T11:49:29.748Z,3.10
2023-07-27T11:51:56.728Z,1.40
2023-07-27T11:54:28.489Z,3.20
2023-07-27T11:56:56.909Z,2.60
2023-07-27T11:59:24.354Z,2.10
2023-07-27T12:01:52.069Z,2.50
2023-07-27T12:04:20.229Z,1.80
2023-07-27T12:06:47.644Z,1.50
2023-07-27T12:09:14.690Z,2.30
2023-07-27T12:11:42.018Z,1.90
2023-07-27T12:14:09.747Z,4.10
2023-07-27T12:21:48.372Z,1.50
2023-07-27T12:34:18.572Z,2.90
2023-07-27T12:39:17.101Z,2.70
2023-07-27T12:42:23.499Z,3.90
2023-07-27T12:44:31.517Z,2.50
2023-07-27T12:46:58.684Z,4.20
2023-07-27T12:49:28.126Z,1.90
2023-07-27T12:51:55.129Z,3.40
2023-07-27T12:54:22.145Z,3.60
2023-07-27T12:56:49.161Z,2.00
2023-07-27T12:59:16.368Z,4.50
2023-07-27T13:01:43.376Z,2.60
2023-07-27T13:04:10.371Z,1.60
2023-07-27T13:06:37.548Z,2.80
2023-07-27T13:09:06.372Z,2.60
2023-07-27T13:11:34.194Z,2.10
2023-07-27T13:14:02.550Z,4.30
2023-07-27T13:16:29.947Z,4.50
2023-07-27T13:18:56.992Z,3.00
2023-07-27T13:21:24.120Z,1.80
2023-07-27T13:23:51.169Z,2.10
2023-07-27T13:26:18.463Z,1.70
2023-07-27T13:28:45.679Z,3.80
2023-07-27T13:31:13.011Z,2.90
2023-07-27T13:33:40.062Z,2.90
2023-07-27T13:36:07.190Z,3.70
2023-07-27T13:38:34.279Z,3.80
2023-07-27T13:41:01.299Z,2.90
2023-07-27T13:43:28.381Z,4.30
2023-07-27T13:45:55.684Z,2.80
2023-07-27T13:48:24.044Z,4.60
2023-07-27T13:50:51.217Z,3.80
2023-07-27T13:53:20.111Z,3.30
2023-07-27T13:55:49.554Z,3.00
2023-07-27T13:58:19.707Z,6.10
2023-07-27T14:00:47.238Z,4.40
2023-07-27T14:03:15.167Z,2.60
2023-07-27T14:05:42.234Z,4.10
2023-07-27T14:08:09.258Z,4.70
2023-07-27T14:10:36.380Z,4.20
2023-07-27T14:13:03.351Z,3.40
2023-07-27T14:15:30.411Z,2.30
2023-07-27T14:17:57.499Z,5.80
2023-07-27T14:20:24.641Z,2.30
2023-07-27T14:22:51.701Z,2.30
2023-07-27T14:25:18.768Z,3.90
2023-07-27T14:27:45.969Z,3.50
2023-07-27T14:30:13.251Z,6.10
2023-07-27T14:32:40.404Z,5.80
2023-07-27T14:35:07.781Z,2.60
2023-07-27T14:37:34.839Z,4.10
2023-07-27T14:40:02.089Z,4.00
2023-07-27T14:42:29.511Z,3.40
2023-07-27T14:44:56.593Z,4.90
2023-07-27T14:47:23.841Z,2.20
2023-07-27T14:52:21.880Z,9.10
2023-07-27T14:54:48.878Z,2.80
2023-07-27T14:57:15.888Z,2.50
2023-07-27T14:59:44.202Z,2.10
2023-07-27T15:04:54.977Z,4.60
2023-07-27T15:07:22.558Z,2.50
2023-07-27T15:09:50.759Z,2.60
2023-07-27T15:12:17.766Z,4.10
2023-07-27T15:14:44.919Z,1.80
2023-07-27T15:17:11.990Z,2.60
2023-07-27T15:19:39.199Z,3.10
2023-07-27T15:22:06.722Z,2.20
2023-07-27T15:24:33.756Z,4.90
2023-07-27T15:27:03.626Z,4.30
2023-07-27T15:29:31.356Z,3.40
2023-07-27T15:31:58.381Z,2.80
2023-07-27T15:34:25.464Z,3.60
2023-07-27T15:36:52.775Z,2.80
2023-07-27T15:39:19.787Z,5.40
2023-07-27T15:41:46.809Z,4.80
2023-07-27T15:44:13.841Z,5.50
2023-07-27T15:46:40.918Z,4.20
2023-07-27T15:49:07.888Z,2.60
2023-07-27T15:51:35.565Z,3.60
2023-07-27T15:54:02.548Z,3.60
2023-07-27T15:56:30.101Z,3.50
2023-07-27T15:58:57.153Z,2.80
2023-07-27T16:01:24.246Z,3.50
2023-07-27T16:03:51.293Z,2.80
2023-07-27T16:06:18.268Z,3.40
2023-07-27T16:08:45.542Z,4.40
2023-07-27T16:11:12.534Z,2.90
2023-07-27T16:17:12.260Z,5.60
2023-07-27T16:19:39.317Z,3.90
2023-07-27T16:22:06.336Z,3.40
2023-07-27T16:24:36.189Z,3.80
2023-07-27T16:27:03.571Z,3.40
2023-07-27T16:29:33.224Z,3.60
2023-07-27T16:32:00.307Z,3.90
2023-07-27T16:34:27.375Z,3.10
2023-07-27T16:36:54.397Z,2.60
2023-07-27T16:39:22.593Z,2.30
2023-07-27T16:41:49.684Z,3.90
2023-07-27T16:44:17.458Z,2.80
2023-07-27T16:46:44.502Z,3.30
2023-07-27T16:49:11.554Z,4.20
2023-07-27T16:51:38.677Z,4.30
2023-07-27T16:54:05.652Z,4.50
2023-07-27T16:56:32.858Z,2.70
2023-07-27T16:59:00.238Z,3.60
2023-07-27T17:01:27.205Z,4.60
2023-07-27T17:03:54.428Z,2.70
2023-07-27T17:06:21.457Z,2.70
2023-07-27T17:08:48.616Z,3.50
2023-07-27T17:11:16.520Z,3.10
2023-07-27T17:13:44.277Z,3.10
2023-07-27T17:16:12.658Z,6.10
2023-07-27T17:18:41.529Z,4.10
2023-07-27T17:21:09.236Z,5.10
2023-07-27T17:23:37.075Z,6.70
2023-07-27T17:26:04.915Z,5.90
2023-07-27T17:28:32.790Z,6.40
2023-07-27T17:31:00.793Z,6.40
2023-07-27T17:33:28.331Z,4.70
2023-07-27T17:35:58.014Z,4.70
2023-07-27T17:38:28.153Z,4.20
2023-07-27T17:40:56.289Z,3.40
2023-07-27T17:43:26.246Z,4.00
2023-07-27T17:45:53.923Z,4.50
2023-07-27T17:48:22.813Z,5.00
2023-07-27T17:50:56.845Z,3.00
2023-07-27T17:53:25.538Z,4.90
2023-07-27T17:55:53.665Z,3.90
2023-07-27T17:58:21.059Z,3.30
2023-07-27T18:00:48.191Z,3.90
2023-07-27T18:03:15.692Z,3.10
2023-07-27T18:05:43.919Z,3.20
2023-07-27T18:08:11.162Z,3.70
2023-07-27T18:10:38.205Z,5.00
2023-07-27T18:13:05.373Z,5.00
2023-07-27T18:15:33.003Z,4.40
2023-07-27T18:18:00.274Z,5.40
2023-07-27T18:20:27.585Z,5.40
2023-07-27T18:22:54.873Z,3.80
2023-07-27T18:25:21.993Z,10.20
2023-07-27T18:27:49.442Z,6.20
2023-07-27T18:30:16.699Z,4.20
2023-07-27T18:32:43.947Z,4.60
2023-07-27T18:35:11.013Z,4.40
2023-07-27T18:37:38.081Z,6.40
2023-07-27T18:40:05.661Z,3.80
2023-07-27T18:42:35.395Z,5.40
2023-07-27T18:45:02.862Z,4.80
2023-07-27T18:47:30.093Z,4.50
2023-07-27T18:49:57.124Z,4.50
2023-07-27T18:52:24.670Z,6.40
2023-07-27T18:54:52.012Z,4.80
2023-07-27T18:57:22.202Z,3.80
2023-07-27T18:59:49.307Z,7.30
2023-07-27T19:02:16.719Z,3.00
2023-07-27T19:04:43.750Z,3.70
2023-07-27T19:07:10.807Z,4.50
2023-07-27T19:09:38.032Z,4.40
2023-07-27T19:12:05.718Z,3.90
2023-07-27T19:14:33.304Z,4.60
2023-07-27T19:17:00.265Z,4.80
2023-07-27T19:19:27.318Z,6.00
2023-07-27T19:21:54.850Z,6.70
2023-07-27T19:24:21.818Z,3.30
2023-07-27T19:26:48.888Z,7.80
2023-07-27T19:29:19.017Z,6.10
2023-07-27T19:31:47.826Z,7.10
2023-07-27T19:34:15.185Z,6.20
2023-07-27T19:36:42.309Z,4.60
2023-07-27T19:39:09.308Z,6.50
2023-07-27T19:41:36.352Z,4.60
2023-07-27T19:44:03.389Z,3.90
2023-07-27T19:46:30.707Z,3.30
2023-07-27T19:48:57.765Z,4.00
2023-07-27T19:51:25.069Z,5.00
2023-07-27T19:53:52.077Z,4.90
2023-07-27T19:56:20.464Z,6.40
2023-07-27T19:58:49.018Z,6.80
2023-07-27T20:01:17.601Z,4.70
2023-07-27T20:03:48.453Z,5.90
2023-07-27T20:06:15.935Z,6.40
2023-07-27T20:08:47.534Z,4.50
2023-07-27T20:11:16.371Z,4.70
2023-07-27T20:13:44.238Z,6.30
2023-07-27T20:16:11.333Z,6.80
2023-07-27T20:18:38.866Z,7.60
2023-07-27T20:21:05.939Z,4.70
2023-07-27T20:23:35.009Z,6.50
2023-07-27T20:26:02.512Z,6.50
2023-07-27T20:28:30.092Z,7.90
2023-07-27T20:30:57.279Z,6.30
2023-07-27T20:33:24.409Z,7.00
2023-07-27T20:35:51.600Z,5.90
2023-07-27T20:38:18.617Z,6.90
2023-07-27T20:40:45.833Z,15.80
2023-07-27T20:43:12.915Z,6.20
2023-07-27T20:45:39.987Z,5.70
2023-07-27T20:48:07.214Z,6.60
2023-07-27T20:50:38.536Z,5.20
2023-07-27T20:53:06.314Z,7.50
2023-07-27T20:55:33.642Z,5.90
2023-07-27T20:58:00.714Z,7.30
2023-07-27T21:00:27.762Z,7.60
2023-07-27T21:02:54.816Z,6.90
2023-07-27T21:05:21.915Z,5.50
2023-07-27T21:07:49.733Z,8.90
2023-07-27T21:10:16.882Z,6.90
2023-07-27T21:12:44.098Z,7.70
2023-07-27T21:15:11.187Z,9.30
2023-07-27T21:17:38.418Z,8.00
2023-07-27T21:20:06.103Z,7.90
2023-07-27T21:22:33.302Z,7.20
2023-07-27T21:25:00.937Z,9.70
2023-07-27T21:27:27.916Z,9.00
2023-07-27T21:29:54.970Z,9.60
2023-07-27T21:32:26.413Z,11.00
2023-07-27T21:34:53.404Z,9.90
2023-07-27T21:37:20.371Z,9.60
2023-07-27T21:39:49.278Z,11.90
2023-07-27T21:42:19.983Z,7.50
2023-07-27T21:44:47.016Z,8.90
2023-07-27T21:47:14.023Z,7.80
2023-07-27T21:49:42.100Z,10.30
2023-07-27T21:52:09.148Z,10.00
2023-07-27T21:54:36.095Z,6.40
2023-07-27T21:57:03.760Z,8.30
2023-07-27T21:59:30.906Z,16.90
2023-07-27T22:01:57.875Z,12.20
2023-07-27T22:04:25.034Z,8.30
2023-07-27T22:06:52.060Z,6.90
2023-07-27T22:09:19.494Z,5.90
2023-07-27T22:11:46.544Z,7.80
2023-07-27T22:14:13.578Z,6.50
2023-07-27T22:16:40.836Z,5.90
2023-07-27T22:19:07.877Z,5.30
2023-07-27T22:21:34.940Z,3.80
2023-07-27T22:24:02.018Z,3.90
2023-07-27T22:26:29.874Z,5.90
2023-07-27T22:28:56.998Z,6.10
2023-07-27T22:31:24.119Z,6.90
2023-07-27T22:33:53.608Z,5.50
2023-07-27T22:36:20.695Z,5.40
2023-07-27T22:38:47.676Z,4.40
2023-07-27T22:41:14.750Z,3.60
2023-07-27T22:43:41.787Z,3.90
2023-07-27T22:46:09.501Z,6.90
2023-07-27T22:48:36.476Z,6.10
2023-07-27T22:51:03.641Z,6.40
2023-07-27T22:53:30.697Z,6.80
2023-07-27T22:55:57.662Z,4.50
2023-07-27T22:58:24.683Z,4.60
2023-07-27T23:00:51.813Z,3.60
2023-07-27T23:03:18.926Z,5.10
2023-07-27T23:05:46.173Z,4.30
2023-07-27T23:08:13.170Z,6.90
2023-07-27T23:10:40.381Z,7.60
2023-07-27T23:13:07.453Z,9.40
2023-07-27T23:15:37.127Z,9.50
2023-07-27T23:18:04.621Z,19.20
2023-07-27T23:20:32.262Z,18.30
2023-07-27T23:22:59.271Z,22.30
2023-07-27T23:25:26.399Z,21.80
2023-07-27T23:27:54.667Z,18.30
2023-07-27T23:30:21.904Z,18.30
2023-07-27T23:32:49.722Z,26.70
2023-07-27T23:35:16.943Z,38.90
2023-07-27T23:37:46.324Z,43.80
2023-07-27T23:40:14.053Z,32.20
2023-07-27T23:42:41.087Z,17.40
2023-07-27T23:45:08.320Z,9.20
2023-07-27T23:47:35.501Z,6.50
2023-07-27T23:50:03.086Z,4.40
2023-07-27T23:52:30.388Z,4.00
2023-07-27T23:54:57.378Z,7.00
2023-07-27T23:57:24.579Z,5.30
2023-07-27T23:59:51.615Z,5.20
